Time;durP1;ratioP1;P1;durP2;ratioP2;P2;SDS_P1;SDS_P2;PMS_P1;PMS_P2;Temp;Humidity;BMP_temperature;BMP_pressure;BME280_temperature;BME280_humidity;BME280_pressure;Samples;Min_cycle;Max_cycle;Signal;HPM_P1;HPM_P2
2021/04/27 00:01:21;;;;;;;;;;;;;;;19.35;58.51;100475.00;5057159;28;1883;-65
2021/04/27 00:03:48;;;;;;;;;;;;;;;19.37;58.39;100470.31;5057290;28;1689;-65
2021/04/27 00:06:14;;;;;;;;;;;;;;;19.36;58.61;100484.75;5057036;28;1988;-65
2021/04/27 00:08:40;;;;;;;;;;;;;;;19.34;58.62;100480.50;5057036;28;1645;-64
2021/04/27 00:11:07;;;;;;;;;;;;;;;19.36;58.61;100492.78;5056810;28;1558;-57
2021/04/27 00:13:34;;;;;;;;;;;;;;;19.33;58.74;100484.19;5057407;28;1431;-57
2021/04/27 00:16:00;;;;;;;;;;;;;;;19.36;58.42;100490.09;5056935;28;1566;-65
2021/04/27 00:18:26;;;;;;;;;;;;;;;19.36;58.82;100491.91;5057082;28;1705;-56
2021/04/27 00:20:52;;;;;;;;;;;;;;;19.34;58.42;100484.03;5057158;28;1664;-56
2021/04/27 00:23:18;;;;;;;;;;;;;;;19.35;58.66;100485.72;5056584;28;1312;-65
2021/04/27 00:25:44;;;;;;;;;;;;;;;19.32;58.71;100475.28;5057446;28;1909;-65
2021/04/27 00:28:10;;;;;;;;;;;;;;;19.33;58.78;100492.22;5057039;28;1609;-65
2021/04/27 00:30:37;;;;;;;;;;;;;;;19.31;58.78;100500.41;5056572;28;1769;-57
2021/04/27 00:33:04;;;;;;;;;;;;;;;19.32;58.80;100504.78;5056524;28;1621;-65
2021/04/27 00:35:30;;;;;;;;;;;;;;;19.32;58.76;100506.59;5057616;28;1057;-57
2021/04/27 00:37:57;;;;;;;;;;;;;;;19.32;58.83;100498.56;5056133;28;1672;-56
2021/04/27 00:40:23;;;;;;;;;;;;;;;19.32;58.83;100504.78;5056453;28;1665;-65
2021/04/27 00:42:50;;;;;;;;;;;;;;;19.30;58.91;100501.41;5056443;28;1673;-57
2021/04/27 00:45:17;;;;;;;;;;;;;;;19.30;59.15;100485.31;5055907;28;1961;-65
2021/04/27 00:47:44;;;;;;;;;;;;;;;19.31;58.96;100494.19;5056078;28;1430;-66
2021/04/27 00:50:11;;;;;;;;;;;;;;;19.30;59.09;100497.84;5056515;28;1426;-66
2021/04/27 00:52:38;;;;;;;;;;;;;;;19.32;58.97;100498.56;5056388;28;1827;-65
2021/04/27 00:55:04;;;;;;;;;;;;;;;19.30;59.20;100506.78;5056377;28;1367;-66
2021/04/27 00:57:31;;;;;;;;;;;;;;;19.32;59.11;100504.78;5052093;28;1637;-65
2021/04/27 00:59:58;;;;;;;;;;;;;;;19.12;59.08;100478.97;5055947;28;1384;-65
2021/04/27 01:02:24;;;;;;;;;;;;;;;19.32;58.97;100504.78;5056424;28;1317;-65
2021/04/27 01:04:51;;;;;;;;;;;;;;;19.32;58.74;100528.91;5055849;28;1487;-65
2021/04/27 01:07:19;;;;;;;;;;;;;;;19.31;59.07;100513.81;5055949;28;1909;-57
2021/04/27 01:09:47;;;;;;;;;;;;;;;19.31;59.26;100516.50;5055219;28;1359;-67
2021/04/27 01:12:17;;;;;;;;;;;;;;;19.34;59.14;100529.63;5055802;28;1582;-64
2021/04/27 01:14:45;;;;;;;;;;;;;;;19.37;59.41;100528.47;5056035;28;1633;-56
2021/04/27 01:17:12;;;;;;;;;;;;;;;19.39;59.40;100537.22;5055590;28;1633;-65
2021/04/27 01:19:40;;;;;;;;;;;;;;;19.38;59.37;100541.75;5056449;28;1058;-65
2021/04/27 01:22:08;;;;;;;;;;;;;;;19.39;59.46;100543.44;5055971;28;1756;-65
2021/04/27 01:24:39;;;;;;;;;;;;;;;19.37;59.45;100523.13;5055349;28;1350;-56
2021/04/27 01:27:07;;;;;;;;;;;;;;;19.39;59.47;100543.44;5055474;28;1902;-57
2021/04/27 01:29:34;;;;;;;;;;;;;;;19.37;59.48;100553.44;5055508;28;1410;-57
2021/04/27 01:32:01;;;;;;;;;;;;;;;19.36;59.36;100537.50;5055194;28;1613;-65
2021/04/27 01:34:29;;;;;;;;;;;;;;;19.36;59.77;100533.00;5055927;28;1382;-65
2021/04/27 01:36:55;;;;;;;;;;;;;;;19.35;60.15;100538.50;5055655;28;1713;-56
2021/04/27 01:39:25;;;;;;;;;;;;;;;19.36;59.89;100540.19;5055198;28;1335;-56
2021/04/27 01:41:52;;;;;;;;;;;;;;;19.34;59.49;100532.31;5055473;28;1582;-57
2021/04/27 01:44:20;;;;;;;;;;;;;;;19.33;59.72;100527.91;5055143;28;1669;-56
2021/04/27 01:46:46;;;;;;;;;;;;;;;19.31;59.75;100524.53;5055048;28;1985;-66
2021/04/27 01:49:12;;;;;;;;;;;;;;;19.32;59.62;100511.97;5055583;28;1224;-56
2021/04/27 01:51:39;;;;;;;;;;;;;;;19.33;59.81;100511.81;5055377;28;1709;-57
2021/04/27 01:54:05;;;;;;;;;;;;;;;19.32;59.80;100517.31;5056147;28;1062;-65
2021/04/27 01:56:31;;;;;;;;;;;;;;;19.28;59.79;100498.88;5053987;28;1605;-56
2021/04/27 01:58:57;;;;;;;;;;;;;;;19.28;59.70;100524.84;5054889;28;1515;-65
2021/04/27 02:01:24;;;;;;;;;;;;;;;19.29;59.88;100526.50;5043599;23;1989;-47
2021/04/27 02:03:50;;;;;;;;;;;;;;;19.28;59.83;100514.13;4991645;28;1543;-47
2021/04/27 02:06:17;;;;;;;;;;;;;;;19.30;60.09;100527.34;4992614;28;1902;-47
2021/04/27 02:08:46;;;;;;;;;;;;;;;19.28;59.53;100525.66;4992402;28;1258;-50
2021/04/27 02:11:13;;;;;;;;;;;;;;;19.30;59.69;100522.00;5027970;23;3491;-57
2021/04/27 02:13:39;;;;;;;;;;;;;;;19.30;59.96;100516.63;5042474;28;1055;-56
2021/04/27 02:16:06;;;;;;;;;;;;;;;19.30;60.17;100516.63;5041738;28;1701;-66
2021/04/27 02:18:34;;;;;;;;;;;;;;;19.28;60.05;100516.78;5041214;28;1656;-65
2021/04/27 02:21:01;;;;;;;;;;;;;;;19.28;60.13;100498.03;5051189;28;1721;-56
2021/04/27 02:23:29;;;;;;;;;;;;;;;19.27;60.00;100480.22;5042820;28;1449;-57
2021/04/27 02:25:55;;;;;;;;;;;;;;;19.28;59.91;100524.84;5042353;28;1975;-65
2021/04/27 02:28:22;;;;;;;;;;;;;;;19.27;60.27;100512.41;5041932;28;990;-66
2021/04/27 02:30:49;;;;;;;;;;;;;;;19.26;60.27;100538.38;5040829;28;1892;-56
2021/04/27 02:33:15;;;;;;;;;;;;;;;19.33;59.93;100538.63;5042595;28;1709;-65
2021/04/27 02:35:42;;;;;;;;;;;;;;;19.62;59.11;100516.28;5051441;28;1633;-56
2021/04/27 02:38:10;;;;;;;;;;;;;;;20.44;57.04;100522.72;5042417;28;1085;-57
2021/04/27 02:40:36;;;;;;;;;;;;;;;21.02;55.36;100508.88;5040795;28;1509;-56
2021/04/27 02:43:02;;;;;;;;;;;;;;;20.91;56.25;100540.53;5040818;28;1477;-57
2021/04/27 02:45:31;;;;;;;;;;;;;;;20.35;57.13;100526.31;5042835;28;1981;-66
2021/04/27 02:48:04;;;;;;;;;;;;;;;20.21;57.53;100528.53;5043557;28;1570;-56
2021/04/27 02:50:30;;;;;;;;;;;;;;;20.43;56.91;100534.44;5050605;28;1063;-66
2021/04/27 02:52:57;;;;;;;;;;;;;;;20.77;56.70;100525.78;5040986;28;1509;-57
2021/04/27 02:55:23;;;;;;;;;;;;;;;21.00;56.32;100529.69;5040768;28;1534;-57
2021/04/27 02:57:49;;;;;;;;;;;;;;;21.23;55.80;100540.81;5047369;28;1451;-57
2021/04/27 03:00:16;;;;;;;;;;;;;;;21.22;55.39;100530.22;5046281;28;1392;-57
2021/04/27 03:02:42;;;;;;;;;;;;;;;21.10;55.13;100539.53;5042665;28;1888;-66
2021/04/27 03:05:09;;;;;;;;;;;;;;;21.06;55.15;100537.13;5040194;28;1761;-57
2021/04/27 03:07:35;;;;;;;;;;;;;;;21.06;55.18;100530.94;5042419;28;1902;-66
2021/04/27 03:10:02;;;;;;;;;;;;;;;21.05;55.28;100511.28;5042457;28;1584;-65
2021/04/27 03:12:28;;;;;;;;;;;;;;;21.14;55.26;100497.88;5061081;28;1617;-66
2021/04/27 03:14:54;;;;;;;;;;;;;;;21.16;55.20;100517.41;5062411;28;1593;-66
2021/04/27 03:17:20;;;;;;;;;;;;;;;21.18;55.50;100515.41;5062174;28;1462;-56
2021/04/27 03:19:46;;;;;;;;;;;;;;;21.21;55.25;100517.78;5063747;28;888;-67
2021/04/27 03:22:12;;;;;;;;;;;;;;;21.21;55.59;100537.44;5064468;28;1469;-58
2021/04/27 03:24:38;;;;;;;;;;;;;;;21.18;55.14;100539.59;5062030;28;1497;-63
2021/04/27 03:27:06;;;;;;;;;;;;;;;21.19;56.01;100538.63;5062864;28;1912;-57
2021/04/27 03:29:32;;;;;;;;;;;;;;;21.14;55.71;100543.59;5061600;28;1640;-57
2021/04/27 03:31:58;;;;;;;;;;;;;;;21.18;55.64;100520.78;5062068;28;1426;-68
2021/04/27 03:34:24;;;;;;;;;;;;;;;21.22;55.40;100549.03;5068652;28;1500;-67
2021/04/27 03:36:50;;;;;;;;;;;;;;;21.29;55.53;100555.50;5067732;28;1776;-67
2021/04/27 03:39:16;;;;;;;;;;;;;;;21.29;55.62;100546.56;5061496;28;1577;-68
2021/04/27 03:41:42;;;;;;;;;;;;;;;21.31;56.09;100536.50;5059812;28;1386;-67
2021/04/27 03:44:09;;;;;;;;;;;;;;;21.29;55.24;100557.31;5060181;28;1577;-68
2021/04/27 03:46:35;;;;;;;;;;;;;;;21.37;55.09;100542.13;5061952;28;1914;-61
2021/04/27 03:49:01;;;;;;;;;;;;;;;21.38;56.02;100537.56;5062050;28;1071;-66
2021/04/27 03:51:27;;;;;;;;;;;;;;;21.39;55.24;100548.19;5068975;28;1472;-68
2021/04/27 03:53:53;;;;;;;;;;;;;;;21.40;55.89;100514.03;5060039;28;1592;-57
2021/04/27 03:56:20;;;;;;;;;;;;;;;21.14;56.54;100546.28;5060362;28;1114;-57
2021/04/27 03:58:46;;;;;;;;;;;;;;;20.77;57.58;100547.28;5057729;28;1775;-58
2021/04/27 04:01:13;;;;;;;;;;;;;;;20.51;57.39;100534.53;5062134;28;1577;-57
2021/04/27 04:03:39;;;;;;;;;;;;;;;20.30;58.54;100545.56;5062186;28;1592;-68
2021/04/27 04:06:05;;;;;;;;;;;;;;;20.19;58.89;100543.94;5060339;28;1907;-57
2021/04/27 04:08:31;;;;;;;;;;;;;;;20.10;58.94;100534.06;5061288;28;1399;-57
2021/04/27 04:10:57;;;;;;;;;;;;;;;20.03;58.81;100547.25;5060950;28;1055;-57
2021/04/27 04:13:24;;;;;;;;;;;;;;;19.95;59.22;100541.75;5065340;28;1765;-57
2021/04/27 04:15:50;;;;;;;;;;;;;;;19.91;59.03;100551.09;5059981;28;1450;-68
2021/04/27 04:18:17;;;;;;;;;;;;;;;19.89;59.19;100554.91;5060211;28;1672;-57
2021/04/27 04:20:43;;;;;;;;;;;;;;;19.85;59.66;100565.94;5070470;28;1299;-59
2021/04/27 04:23:09;;;;;;;;;;;;;;;19.81;59.70;100564.53;5065014;28;1058;-66
2021/04/27 04:25:36;;;;;;;;;;;;;;;19.76;60.10;100566.84;5060980;28;1910;-66
2021/04/27 04:28:02;;;;;;;;;;;;;;;19.75;60.04;100550.88;5066114;28;1517;-67
2021/04/27 04:30:28;;;;;;;;;;;;;;;19.73;60.12;100561.75;5063900;28;1565;-66
2021/04/27 04:32:54;;;;;;;;;;;;;;;19.69;60.22;100571.03;5065210;28;1351;-58
2021/04/27 04:35:22;;;;;;;;;;;;;;;19.70;60.22;100555.81;5071755;28;1087;-64
2021/04/27 04:37:48;;;;;;;;;;;;;;;19.68;60.48;100564.00;5062899;28;1712;-58
2021/04/27 04:40:15;;;;;;;;;;;;;;;19.67;60.48;100562.28;5064733;28;1528;-67
2021/04/27 04:42:41;;;;;;;;;;;;;;;19.70;60.37;100555.81;5068231;28;1437;-63
2021/04/27 04:45:08;;;;;;;;;;;;;;;19.69;60.40;100557.63;5068300;28;1461;-63
2021/04/27 04:47:34;;;;;;;;;;;;;;;19.68;60.17;100554.09;5069618;28;1973;-56
2021/04/27 04:50:01;;;;;;;;;;;;;;;19.66;60.46;100550.72;5072272;28;1255;-56
2021/04/27 04:52:28;;;;;;;;;;;;;;;19.66;60.10;100549.88;5068475;28;1485;-59
2021/04/27 04:54:54;;;;;;;;;;;;;;;19.66;60.66;100552.56;5069932;28;1303;-67
2021/04/27 04:57:20;;;;;;;;;;;;;;;19.57;60.08;100540.00;5072489;28;1435;-61
2021/04/27 04:59:46;;;;;;;;;;;;;;;19.51;60.53;100562.06;5067221;28;1310;-63
2021/04/27 05:02:12;;;;;;;;;;;;;;;19.47;60.80;100569.53;5070328;28;1423;-67
2021/04/27 05:04:38;;;;;;;;;;;;;;;19.44;60.65;100570.66;5070149;28;1365;-63
2021/04/27 05:07:06;;;;;;;;;;;;;;;19.50;60.04;100582.66;5066661;28;1902;-67
2021/04/27 05:09:34;;;;;;;;;;;;;;;19.53;60.19;100597.63;5068758;28;1255;-65
2021/04/27 05:12:00;;;;;;;;;;;;;;;19.02;59.24;100611.16;5067361;28;1391;-66
2021/04/27 05:14:26;;;;;;;;;;;;;;;18.69;58.32;100615.03;5070439;28;1489;-56
2021/04/27 05:16:53;;;;;;;;;;;;;;;18.81;58.84;100613.94;5070947;28;1379;-55
2021/04/27 05:19:19;;;;;;;;;;;;;;;18.73;58.44;100616.44;5071884;28;1074;-60
2021/04/27 05:21:45;;;;;;;;;;;;;;;18.73;58.81;100599.53;5069174;28;1262;-56
2021/04/27 05:24:11;;;;;;;;;;;;;;;18.96;59.30;100606.38;5062532;28;1429;-56
2021/04/27 05:26:38;;;;;;;;;;;;;;;19.04;59.67;100598.47;5058979;28;1960;-61
2021/04/27 05:29:04;;;;;;;;;;;;;;;19.08;59.19;100601.72;5065852;28;1533;-56
2021/04/27 05:31:30;;;;;;;;;;;;;;;19.16;59.41;100599.19;5063088;28;1632;-61
2021/04/27 05:33:56;;;;;;;;;;;;;;;19.14;59.34;100592.25;5063587;28;1073;-61
2021/04/27 05:36:22;;;;;;;;;;;;;;;19.15;59.41;100605.53;5071097;28;1723;-56
2021/04/27 05:38:48;;;;;;;;;;;;;;;19.16;59.28;100606.38;5062373;28;1498;-61
2021/04/27 05:41:14;;;;;;;;;;;;;;;19.17;59.47;100622.31;5064573;28;1383;-61
2021/04/27 05:43:41;;;;;;;;;;;;;;;19.18;59.58;100617.78;5063214;28;1597;-56
2021/04/27 05:46:07;;;;;;;;;;;;;;;19.19;59.83;100622.19;5065609;28;1914;-60
2021/04/27 05:48:33;;;;;;;;;;;;;;;19.18;59.65;100632.06;5060994;28;1521;-61
2021/04/27 05:50:59;;;;;;;;;;;;;;;19.19;59.68;100641.78;5071283;28;1778;-61
2021/04/27 05:53:25;;;;;;;;;;;;;;;19.18;59.83;100631.19;5063544;28;1672;-56
2021/04/27 05:55:51;;;;;;;;;;;;;;;19.18;59.57;100639.25;5066186;28;1252;-61
2021/04/27 05:58:17;;;;;;;;;;;;;;;19.19;59.69;100646.31;5070728;28;1759;-56
2021/04/27 06:00:44;;;;;;;;;;;;;;;19.17;59.86;100642.91;5061802;28;1557;-61
2021/04/27 06:03:10;;;;;;;;;;;;;;;19.15;59.93;100653.78;5063937;28;1613;-56
2021/04/27 06:05:36;;;;;;;;;;;;;;;19.16;59.91;100641.22;5063805;28;1902;-56
2021/04/27 06:08:02;;;;;;;;;;;;;;;19.16;59.89;100651.94;5061576;28;1875;-56
2021/04/27 06:10:28;;;;;;;;;;;;;;;19.15;60.04;100660.97;5066978;28;1573;-61
2021/04/27 06:12:54;;;;;;;;;;;;;;;19.15;59.83;100650.25;5063273;28;1373;-56
2021/04/27 06:15:20;;;;;;;;;;;;;;;19.13;60.06;100655.75;5067729;28;1628;-61
2021/04/27 06:17:47;;;;;;;;;;;;;;;19.15;59.86;100644.91;5067779;28;1620;-61
2021/04/27 06:20:14;;;;;;;;;;;;;;;19.13;60.36;100638.81;5058964;28;1064;-61
2021/04/27 06:22:40;;;;;;;;;;;;;;;19.17;60.00;100637.56;5067242;28;1787;-56
2021/04/27 06:25:08;;;;;;;;;;;;;;;19.13;60.13;100623.59;5067662;28;1581;-56
2021/04/27 06:27:34;;;;;;;;;;;;;;;19.15;60.16;100612.72;5059307;28;1983;-56
2021/04/27 06:30:00;;;;;;;;;;;;;;;19.11;59.72;100619.34;5064147;28;1629;-56
2021/04/27 06:32:27;;;;;;;;;;;;;;;19.16;60.08;100617.97;5063123;28;1652;-56
2021/04/27 06:34:54;;;;;;;;;;;;;;;19.17;60.00;100613.44;5065711;28;1026;-59
2021/04/27 06:37:20;;;;;;;;;;;;;;;19.17;60.21;100594.66;5066191;28;1604;-61
2021/04/27 06:39:46;;;;;;;;;;;;;;;19.17;60.17;100598.19;5065425;28;1537;-60
2021/04/27 06:42:12;;;;;;;;;;;;;;;19.23;60.35;100591.44;5063939;28;1398;-61
2021/04/27 06:44:38;;;;;;;;;;;;;;;19.24;60.10;100583.25;5065258;28;1553;-56
2021/04/27 06:47:06;;;;;;;;;;;;;;;19.24;60.22;100611.91;5061688;28;1902;-60
2021/04/27 06:49:32;;;;;;;;;;;;;;;19.25;60.00;100602.84;5064029;28;1113;-64
2021/04/27 06:51:59;;;;;;;;;;;;;;;19.30;59.90;100592.56;5066428;28;1386;-56
2021/04/27 06:54:25;;;;;;;;;;;;;;;19.28;60.41;100591.88;5064079;28;1512;-57
2021/04/27 06:56:51;;;;;;;;;;;;;;;19.25;59.77;100609.06;5061770;28;1593;-60
2021/04/27 06:59:20;;;;;;;;;;;;;;;19.25;60.14;100614.41;5061201;28;1555;-60
2021/04/27 07:01:46;;;;;;;;;;;;;;;19.21;60.25;100604.13;5068194;28;1594;-56
2021/04/27 07:04:12;;;;;;;;;;;;;;;19.19;60.39;100609.63;5068375;28;1385;-56
2021/04/27 07:06:38;;;;;;;;;;;;;;;19.16;60.52;100614.41;5063117;28;1981;-59
2021/04/27 07:09:05;;;;;;;;;;;;;;;19.13;60.83;100614.69;5063704;28;1335;-59
2021/04/27 07:11:31;;;;;;;;;;;;;;;19.15;60.87;100604.69;5070007;28;1584;-59
2021/04/27 07:13:58;;;;;;;;;;;;;;;19.18;60.59;100607.06;5062610;28;1454;-57
2021/04/27 07:16:24;;;;;;;;;;;;;;;19.20;60.66;100621.19;5061394;28;1569;-56
2021/04/27 07:18:50;;;;;;;;;;;;;;;19.26;60.11;100609.91;5063894;28;994;-56
2021/04/27 07:21:18;;;;;;;;;;;;;;;18.66;61.13;100624.19;5054661;28;1357;-56
2021/04/27 07:23:44;;;;;;;;;;;;;;;18.96;61.01;100627.81;5061600;28;1773;-58
2021/04/27 07:26:11;;;;;;;;;;;;;;;19.04;60.01;100619.91;5069466;28;1902;-57
2021/04/27 07:28:37;;;;;;;;;;;;;;;19.04;58.96;100629.81;5061134;28;1529;-59
2021/04/27 07:31:03;;;;;;;;;;;;;;;19.12;60.48;100621.03;5069658;28;1404;-55
2021/04/27 07:33:29;;;;;;;;;;;;;;;19.16;59.21;100601.88;5066361;28;1700;-56
2021/04/27 07:35:56;;;;;;;;;;;;;;;19.23;60.04;100607.50;5070516;28;1516;-55
2021/04/27 07:38:22;;;;;;;;;;;;;;;19.20;59.46;100623.84;5065445;28;1429;-57
2021/04/27 07:40:48;;;;;;;;;;;;;;;19.16;60.54;100630.50;5069425;28;1383;-56
2021/04/27 07:43:15;;;;;;;;;;;;;;;19.19;61.33;100617.66;5064522;28;1620;-55
2021/04/27 07:45:42;;;;;;;;;;;;;;;19.25;60.56;100618.94;5066919;28;1977;-57
2021/04/27 07:48:08;;;;;;;;;;;;;;;19.27;61.00;100625.00;5068043;28;1423;-55
2021/04/27 07:50:35;;;;;;;;;;;;;;;19.24;60.54;100631.50;5072281;28;1426;-56
2021/04/27 07:53:01;;;;;;;;;;;;;;;19.28;60.41;100622.19;5068969;28;1135;-59
2021/04/27 07:55:27;;;;;;;;;;;;;;;19.25;61.06;100616.25;5068150;28;1604;-56
2021/04/27 07:57:53;;;;;;;;;;;;;;;19.27;61.96;100619.66;5070455;28;1446;-55
2021/04/27 08:00:21;;;;;;;;;;;;;;;19.34;61.77;100612.75;5074477;28;1434;-55
2021/04/27 08:02:49;;;;;;;;;;;;;;;19.40;61.65;100632.78;5074277;28;1510;-56
2021/04/27 08:05:15;;;;;;;;;;;;;;;19.47;62.45;100632.03;5071641;28;1609;-55
2021/04/27 08:07:41;;;;;;;;;;;;;;;19.54;62.09;100636.88;5066237;28;1906;-55
2021/04/27 08:10:09;;;;;;;;;;;;;;;19.54;62.11;100637.72;5070347;28;1383;-57
2021/04/27 08:12:35;;;;;;;;;;;;;;;19.54;62.03;100632.34;5065024;28;1549;-58
2021/04/27 08:15:01;;;;;;;;;;;;;;;19.52;62.37;100636.13;5070946;28;1450;-57
2021/04/27 08:17:28;;;;;;;;;;;;;;;19.34;61.42;100647.59;5071521;28;1565;-57
2021/04/27 08:19:54;;;;;;;;;;;;;;;19.33;61.80;100634.31;5067756;28;965;-56
2021/04/27 08:22:20;;;;;;;;;;;;;;;19.30;62.53;100627.41;5067626;28;1466;-56
2021/04/27 08:24:46;;;;;;;;;;;;;;;19.27;62.99;100631.22;5070041;28;1861;-57
2021/04/27 08:27:12;;;;;;;;;;;;;;;19.31;63.18;100636.31;5070064;28;1979;-57
2021/04/27 08:29:39;;;;;;;;;;;;;;;19.26;62.30;100631.38;5065013;28;1617;-57
2021/04/27 08:32:05;;;;;;;;;;;;;;;19.28;60.20;100642.81;5070433;28;1404;-55
2021/04/27 08:34:32;;;;;;;;;;;;;;;19.07;58.14;100646.44;5064830;28;1102;-56
2021/04/27 08:36:58;;;;;;;;;;;;;;;19.01;57.38;100651.50;5060938;28;1608;-55
2021/04/27 08:39:24;;;;;;;;;;;;;;;19.03;57.00;100649.53;5066750;28;1482;-55
2021/04/27 08:41:50;;;;;;;;;;;;;;;18.89;56.87;100653.44;5065508;28;1597;-55
2021/04/27 08:44:16;;;;;;;;;;;;;;;18.91;56.28;100650.63;5067473;28;1570;-56
2021/04/27 08:46:43;;;;;;;;;;;;;;;18.87;55.79;100652.75;5068605;28;1989;-55
2021/04/27 08:49:09;;;;;;;;;;;;;;;18.79;55.68;100669.50;5071141;28;1303;-56
2021/04/27 08:51:36;;;;;;;;;;;;;;;18.85;55.78;100654.72;5072366;28;1771;-56
2021/04/27 08:54:03;;;;;;;;;;;;;;;18.80;55.49;100657.81;5063160;28;1451;-57
2021/04/27 08:56:29;;;;;;;;;;;;;;;18.75;55.35;100667.22;5063177;28;1505;-56
2021/04/27 08:58:55;;;;;;;;;;;;;;;18.67;54.85;100658.00;5066703;28;966;-56
2021/04/27 09:01:21;;;;;;;;;;;;;;;18.70;55.04;100659.56;5068730;28;1728;-56
2021/04/27 09:03:50;;;;;;;;;;;;;;;18.49;53.65;100651.59;5066688;28;1533;-55
2021/04/27 09:06:18;;;;;;;;;;;;;;;18.65;54.82;100657.28;5062456;28;1918;-55
2021/04/27 09:08:47;;;;;;;;;;;;;;;18.73;54.33;100655.78;5063767;28;1605;-57
2021/04/27 09:11:29;;;;;;;;;;;;;;;18.83;53.16;100662.03;5063912;28;1386;-57
2021/04/27 09:14:15;;;;;;;;;;;;;;;18.63;53.36;100656.59;5064630;28;1703;-57
2021/04/27 09:16:45;;;;;;;;;;;;;;;18.80;53.70;100659.63;5064478;28;1648;-57
2021/04/27 09:19:11;;;;;;;;;;;;;;;18.81;53.51;100642.56;5065105;28;1110;-56
2021/04/27 09:21:39;;;;;;;;;;;;;;;18.77;52.77;100643.81;5071302;28;1716;-57
2021/04/27 09:24:13;;;;;;;;;;;;;;;18.50;52.67;100650.59;5062524;28;1601;-56
2021/04/27 09:26:40;;;;;;;;;;;;;;;18.18;54.91;100648.06;5062294;28;1910;-56
2021/04/27 09:29:06;;;;;;;;;;;;;;;18.70;53.90;100654.19;5062684;28;1597;-55
2021/04/27 09:31:33;;;;;;;;;;;;;;;18.88;53.58;100641.06;5064411;28;1514;-57
2021/04/27 09:34:14;;;;;;;;;;;;;;;19.03;53.57;100644.16;5070455;28;1617;-56
2021/04/27 09:36:40;;;;;;;;;;;;;;;19.08;52.26;100644.63;5065468;28;1591;-56
2021/04/27 09:39:06;;;;;;;;;;;;;;;18.95;52.53;100647.53;5062084;28;1268;-57
2021/04/27 09:41:33;;;;;;;;;;;;;;;18.98;52.55;100624.97;5061893;28;1460;-56
2021/04/27 09:43:59;;;;;;;;;;;;;;;18.24;53.94;100640.38;5062924;28;1398;-56
2021/04/27 09:46:25;;;;;;;;;;;;;;;18.13;53.49;100627.06;5063048;28;1898;-56
2021/04/27 09:48:52;;;;;;;;;;;;;;;18.48;53.83;100634.69;5072784;28;1548;-56
2021/04/27 09:51:20;;;;;;;;;;;;;;;18.68;53.18;100616.88;5064810;28;1410;-55
2021/04/27 09:53:48;;;;;;;;;;;;;;;18.85;53.26;100625.25;5059542;28;1415;-56
2021/04/27 09:56:29;;;;;;;;;;;;;;;18.98;53.33;100620.47;5059245;28;1464;-59
2021/04/27 09:59:00;;;;;;;;;;;;;;;18.81;53.73;100619.31;5061200;28;1378;-55
2021/04/27 10:01:26;;;;;;;;;;;;;;;19.01;53.58;100609.47;5060742;28;1593;-57
2021/04/27 10:03:52;;;;;;;;;;;;;;;19.14;52.92;100613.69;5060410;28;1266;-55
2021/04/27 10:06:18;;;;;;;;;;;;;;;18.89;53.66;100613.25;5064152;28;1973;-55
2021/04/27 10:08:44;;;;;;;;;;;;;;;18.94;53.36;100623.56;5066651;28;1454;-55
2021/04/27 10:11:10;;;;;;;;;;;;;;;18.63;53.74;100615.56;5058686;28;1446;-56
2021/04/27 10:13:36;;;;;;;;;;;;;;;18.83;53.23;100629.88;5058281;28;1047;-54
2021/04/27 10:16:04;;;;;;;;;;;;;;;19.00;53.17;100613.16;5061512;28;1482;-56
2021/04/27 10:18:31;;;;;;;;;;;;;;;19.19;53.21;100608.78;5061805;28;1433;-58
2021/04/27 10:20:58;;;;;;;;;;;;;;;18.97;53.05;100617.94;5067272;28;1628;-58
2021/04/27 10:23:24;;;;;;;;;;;;;;;18.92;52.51;100620.16;5058257;28;1452;-58
2021/04/27 10:25:52;;;;;;;;;;;;;;;18.76;52.15;100620.66;5066622;28;1549;-54
2021/04/27 10:28:18;;;;;;;;;;;;;;;18.68;52.74;100624.03;5066352;28;1981;-53
2021/04/27 10:30:45;;;;;;;;;;;;;;;18.92;52.85;100615.69;5066810;28;1316;-54
2021/04/27 10:33:16;;;;;;;;;;;;;;;18.95;53.11;100611.88;5070482;28;1391;-54
2021/04/27 10:35:43;;;;;;;;;;;;;;;19.14;53.08;100611.03;5057410;28;1763;-54
2021/04/27 10:38:10;;;;;;;;;;;;;;;19.26;52.54;100599.19;5070704;28;1400;-54
2021/04/27 10:40:43;;;;;;;;;;;;;;;19.32;54.78;100606.69;5063752;28;1644;-54
2021/04/27 10:43:24;;;;;;;;;;;;;;;19.37;55.01;100604.41;5068927;28;1494;-54
2021/04/27 10:45:51;;;;;;;;;;;;;;;19.36;55.34;100583.09;5069372;28;1788;-54
2021/04/27 10:48:25;;;;;;;;;;;;;;;19.36;55.31;100591.13;5064530;28;1967;-54
2021/04/27 10:50:51;;;;;;;;;;;;;;;19.37;54.96;100591.00;5068872;28;1878;-54
2021/04/27 10:53:30;;;;;;;;;;;;;;;19.39;54.97;100589.00;5068252;28;1434;-54
2021/04/27 10:55:57;;;;;;;;;;;;;;;19.40;55.60;100584.50;5068855;28;1407;-54
2021/04/27 10:58:38;;;;;;;;;;;;;;;19.41;55.20;100588.88;5068756;28;1157;-54
2021/04/27 11:01:16;;;;;;;;;;;;;;;19.36;55.46;100581.25;5068640;28;1691;-54
2021/04/27 11:03:49;;;;;;;;;;;;;;;19.31;53.47;100575.47;5065565;28;2003;-54
2021/04/27 11:06:15;;;;;;;;;;;;;;;19.35;53.46;100573.34;5071944;28;1906;-54
2021/04/27 11:08:46;;;;;;;;;;;;;;;19.38;53.38;100586.50;5071882;28;1442;-54
2021/04/27 11:11:23;;;;;;;;;;;;;;;19.24;52.62;100577.03;5072038;28;1553;-54
2021/04/27 11:13:49;;;;;;;;;;;;;;;19.31;54.19;100578.16;5071270;28;1463;-54
2021/04/27 11:16:26;;;;;;;;;;;;;;;19.36;53.62;100585.75;5068297;28;1376;-54
2021/04/27 11:19:09;;;;;;;;;;;;;;;19.33;53.21;100578.84;5069699;28;1487;-55
2021/04/27 11:21:35;;;;;;;;;;;;;;;19.34;53.38;100579.69;5068695;28;1760;-54
2021/04/27 11:24:05;;;;;;;;;;;;;;;19.25;53.20;100574.19;5070540;28;1401;-55
2021/04/27 11:26:52;;;;;;;;;;;;;;;19.25;52.66;100563.47;5069738;28;1904;-55
2021/04/27 11:29:20;;;;;;;;;;;;;;;19.34;52.85;100556.44;5061374;28;1987;-54
2021/04/27 11:31:56;;;;;;;;;;;;;;;19.39;52.45;100546.09;5068705;28;1720;-55
2021/04/27 11:34:24;;;;;;;;;;;;;;;19.45;52.93;100555.41;5071056;28;1525;-54
2021/04/27 11:36:51;;;;;;;;;;;;;;;19.46;51.84;100551.75;5068709;28;1790;-54
2021/04/27 11:39:19;;;;;;;;;;;;;;;19.47;52.46;100551.59;5066008;28;1763;-54
2021/04/27 11:41:46;;;;;;;;;;;;;;;19.44;51.98;100541.16;5063841;28;1664;-54
2021/04/27 11:44:12;;;;;;;;;;;;;;;19.44;52.44;100545.69;5066225;28;1644;-55
2021/04/27 11:46:58;;;;;;;;;;;;;;;19.43;52.26;100549.34;5071670;28;1985;-54
2021/04/27 11:49:39;;;;;;;;;;;;;;;19.47;52.83;100546.22;5071383;28;1538;-54
2021/04/27 11:52:06;;;;;;;;;;;;;;;19.55;52.46;100555.41;5069902;28;2189;-54
2021/04/27 11:54:34;;;;;;;;;;;;;;;19.55;52.50;100536.63;5069851;28;1699;-54
2021/04/27 11:57:00;;;;;;;;;;;;;;;19.43;51.17;100547.50;5073143;28;1661;-55
2021/04/27 11:59:26;;;;;;;;;;;;;;;19.42;51.09;100537.78;5061588;28;1453;-54
2021/04/27 12:01:58;;;;;;;;;;;;;;;19.52;51.74;100524.38;5066862;28;1476;-55
2021/04/27 12:04:24;;;;;;;;;;;;;;;19.38;52.15;100520.28;5071684;28;1642;-54
2021/04/27 12:06:58;;;;;;;;;;;;;;;19.37;51.84;100518.59;5068994;28;1902;-55
2021/04/27 12:09:24;;;;;;;;;;;;;;;19.48;52.79;100525.66;5066344;28;1461;-55
2021/04/27 12:11:51;;;;;;;;;;;;;;;19.43;51.64;100501.09;5068289;28;1696;-55
2021/04/27 12:14:18;;;;;;;;;;;;;;;19.42;51.86;100510.97;5069509;28;1498;-54
2021/04/27 12:16:44;;;;;;;;;;;;;;;19.32;53.02;100518.19;5063510;28;1613;-54
2021/04/27 12:19:11;;;;;;;;;;;;;;;19.29;52.10;100518.47;5066872;28;1518;-54
2021/04/27 12:21:42;;;;;;;;;;;;;;;19.30;51.48;100509.44;5067477;28;1629;-55
2021/04/27 12:24:10;;;;;;;;;;;;;;;19.32;52.02;100523.56;5062129;28;1505;-55
2021/04/27 12:26:38;;;;;;;;;;;;;;;19.34;52.62;100507.31;5071035;28;1902;-55
2021/04/27 12:29:05;;;;;;;;;;;;;;;19.23;51.78;100517.19;5064597;28;1430;-54
2021/04/27 12:31:32;;;;;;;;;;;;;;;19.25;50.25;100504.50;5070955;28;1486;-55
2021/04/27 12:33:59;;;;;;;;;;;;;;;19.29;50.88;100513.09;5068703;28;1498;-54
2021/04/27 12:36:32;;;;;;;;;;;;;;;19.33;51.38;100479.66;5065350;28;1514;-54
2021/04/27 12:38:58;;;;;;;;;;;;;;;19.30;50.25;100506.78;5068359;28;1386;-55
2021/04/27 12:41:34;;;;;;;;;;;;;;;19.38;50.29;100488.13;5066740;28;1359;-55
2021/04/27 12:44:21;;;;;;;;;;;;;;;19.37;55.07;100497.13;5072729;28;1552;-59
2021/04/27 12:46:48;;;;;;;;;;;;;;;19.32;55.13;100482.47;5071438;28;2053;-56
2021/04/27 12:49:14;;;;;;;;;;;;;;;19.36;54.59;100473.16;5065604;28;1454;-55